Current Weather

Salzburg

Salzburg, Austria (LOWS)

Report from: Sunday, July 14, 2024 2:50 AM CEST
Current time: Sunday, July 14, 2024 3:32 AM CEST

Nearby weather – Weather history – Daily summaries
Weather forecast

Temperature17.0°C (62.6°F)
Dew point15.0°C (59.0°F)
Winds 3 kts (1.5 m/s, 3.5 mph) South-Southeast (150°)
Visibility6.2 mi. (10 km)
Clouds Few clouds 3,200 ft. (975 m)
Ceiling: Broken clouds 3,400 ft. (1,036 m)
Altimeter29.97 in.Hg (1015 mB)
Relative humidity88 %
Density altitude412 ft. (126 m)
Remarks Fully automated report
Flight conditions Visual Meteorological Conditions
Raw dataLOWS 140050Z AUTO 15003KT 9999 FEW032 BKN034 17/15 Q1015
An error has occurred. This application may no longer respond until reloaded. Reload 🗙